Time;durP1;ratioP1;P1;durP2;ratioP2;P2;SDS_P1;SDS_P2;PMS_P1;PMS_P2;Temp;Humidity;BMP_temperature;BMP_pressure;BME280_temperature;BME280_humidity;BME280_pressure;Samples;Min_cycle;Max_cycle;Signal;HPM_P1;HPM_P2
2023/01/19 00:01:20;;;;;;;20.67;15.63;;;-0.30;1.00;;;;;;6268006;28;20233;-55
2023/01/19 00:04:23;;;;;;;19.67;14.30;;;-0.30;1.00;;;;;;6284238;28;20628;-56
2023/01/19 00:07:26;;;;;;;21.00;14.43;;;-0.30;1.00;;;;;;6282343;28;20237;-57
2023/01/19 00:10:29;;;;;;;17.83;13.87;;;-0.30;1.00;;;;;;6280654;28;20244;-57
2023/01/19 00:13:32;;;;;;;15.97;13.33;;;-0.20;1.00;;;;;;6281834;28;20722;-55
2023/01/19 00:16:37;;;;;;;15.30;13.67;;;-0.10;1.00;;;;;;6279575;28;20229;-56
2023/01/19 00:19:40;;;;;;;14.40;12.90;;;-0.10;1.00;;;;;;6257321;28;20245;-56
2023/01/19 00:22:43;;;;;;;16.03;12.77;;;0.00;1.00;;;;;;6257669;28;20229;-57
2023/01/19 00:25:48;;;;;;;16.60;13.77;;;-0.40;1.00;;;;;;6257232;28;20237;-56
2023/01/19 00:28:51;;;;;;;18.67;13.80;;;-0.50;1.00;;;;;;6256348;28;20637;-57
2023/01/19 00:31:56;;;;;;;17.90;13.90;;;-0.30;1.00;;;;;;6267229;28;20237;-55
2023/01/19 00:34:59;;;;;;;17.70;13.47;;;-0.40;1.00;;;;;;6280957;28;20229;-56
2023/01/19 00:38:03;;;;;;;16.87;13.57;;;-0.60;1.00;;;;;;6284062;28;20251;-56
2023/01/19 00:41:06;;;;;;;20.20;14.17;;;-0.50;1.00;;;;;;6279459;28;20412;-57
2023/01/19 00:44:10;;;;;;;20.27;14.90;;;-0.40;1.00;;;;;;6287170;28;20234;-57
2023/01/19 00:47:14;;;;;;;15.23;13.63;;;-0.50;1.00;;;;;;6277674;28;20414;-56
2023/01/19 00:50:17;;;;;;;14.23;12.73;;;-0.40;1.00;;;;;;6261919;28;20242;-55
2023/01/19 00:53:20;;;;;;;15.10;13.53;;;-0.60;1.00;;;;;;6262055;28;20234;-56
2023/01/19 00:56:24;;;;;;;17.80;14.07;;;-0.60;1.00;;;;;;6261903;28;20284;-56
2023/01/19 00:59:27;;;;;;;18.60;13.70;;;-0.80;1.00;;;;;;6261329;28;20244;-57
2023/01/19 01:02:31;;;;;;;15.77;13.67;;;-0.70;1.00;;;;;;6289588;28;20236;-56
2023/01/19 01:05:34;;;;;;;19.30;13.47;;;-0.70;1.00;;;;;;6282567;28;20383;-57
2023/01/19 01:08:37;;;;;;;22.03;14.57;;;-0.70;1.00;;;;;;6286107;28;20419;-56
2023/01/19 01:11:42;;;;;;;14.83;13.33;;;-0.80;1.00;;;;;;6285127;28;20244;-57
2023/01/19 01:14:45;;;;;;;17.67;13.97;;;-0.80;1.00;;;;;;6275834;28;20238;-56
2023/01/19 01:17:51;;;;;;;20.13;15.33;;;-0.80;1.00;;;;;;6276395;28;20241;-57
2023/01/19 01:21:01;;;;;;;18.90;13.87;;;-0.50;1.00;;;;;;6285853;28;20237;-56
2023/01/19 01:24:04;;;;;;;20.43;14.60;;;-0.50;1.00;;;;;;6282596;28;20230;-56
2023/01/19 01:27:07;;;;;;;17.27;14.27;;;-0.90;1.00;;;;;;6260834;28;20233;-56
2023/01/19 01:30:13;;;;;;;19.23;14.27;;;-1.00;1.00;;;;;;6260535;28;20234;-57
2023/01/19 01:33:18;;;;;;;20.33;14.43;;;-0.90;1.00;;;;;;6275639;28;20706;-56
2023/01/19 01:36:41;;;;;;;20.53;14.77;;;-0.90;1.00;;;;;;6284181;28;20245;-57
2023/01/19 01:39:44;;;;;;;17.07;14.97;;;-1.00;1.00;;;;;;6285058;28;20252;-58
2023/01/19 01:42:47;;;;;;;20.53;13.67;;;-1.10;1.00;;;;;;6264387;28;20604;-56
2023/01/19 01:45:50;;;;;;;18.47;14.60;;;-0.90;1.00;;;;;;6260671;28;20354;-57
2023/01/19 01:49:00;;;;;;;19.67;14.83;;;-1.00;1.00;;;;;;6249641;28;20237;-57
2023/01/19 01:52:03;;;;;;;20.77;14.87;;;-1.00;1.00;;;;;;6260369;28;20633;-57
2023/01/19 01:55:08;;;;;;;19.53;15.13;;;-1.10;1.00;;;;;;6259858;28;20687;-56
2023/01/19 01:58:12;;;;;;;26.43;15.83;;;-0.80;1.00;;;;;;6259889;28;20242;-56
2023/01/19 02:04:38;;;;;;;20.90;14.73;;;-1.10;1.00;;;;;;6281243;28;20223;-56
2023/01/19 02:14:28;;;;;;;18.70;15.20;;;-1.40;1.00;;;;;;6276628;28;20237;-57
2023/01/19 02:17:31;;;;;;;19.63;15.63;;;-1.20;1.00;;;;;;6258890;28;20597;-57
2023/01/19 02:20:37;;;;;;;25.53;15.53;;;-1.40;1.00;;;;;;6258941;28;20248;-56
2023/01/19 02:23:44;;;;;;;17.20;15.30;;;-1.20;1.00;;;;;;6259677;28;20652;-57
2023/01/19 02:26:49;;;;;;;19.57;15.77;;;-1.50;1.00;;;;;;6259489;28;20722;-56
2023/01/19 02:29:52;;;;;;;22.40;15.97;;;-1.40;1.00;;;;;;6249823;28;20753;-57
2023/01/19 02:32:55;;;;;;;17.30;14.77;;;-1.40;1.00;;;;;;6260939;28;20715;-57
2023/01/19 02:35:58;;;;;;;22.73;15.07;;;-1.50;1.00;;;;;;6275992;28;20375;-57
2023/01/19 02:39:04;;;;;;;17.70;14.37;;;-1.20;1.00;;;;;;6283369;28;20411;-56
2023/01/19 02:42:11;;;;;;;18.37;15.03;;;-1.30;1.00;;;;;;6284122;28;20604;-56
2023/01/19 02:45:18;;;;;;;21.97;15.97;;;-1.50;1.00;;;;;;6285118;28;20488;-57
2023/01/19 02:48:21;;;;;;;21.30;16.50;;;-1.60;1.00;;;;;;6261955;28;20246;-56
2023/01/19 02:51:25;;;;;;;18.63;15.20;;;-1.50;1.00;;;;;;6259996;28;20734;-55
2023/01/19 02:54:39;;;;;;;27.90;16.07;;;-1.40;1.00;;;;;;6259326;28;20237;-56
2023/01/19 02:57:54;;;;;;;24.07;16.37;;;-1.40;1.00;;;;;;6259104;28;20833;-56
2023/01/19 03:01:07;;;;;;;22.07;16.80;;;-1.50;1.00;;;;;;6258493;28;20245;-56
2023/01/19 03:04:20;;;;;;;23.23;16.87;;;-1.40;1.00;;;;;;6276990;28;20237;-55
2023/01/19 03:07:34;;;;;;;23.90;17.00;;;-1.40;1.00;;;;;;6282267;28;20259;-55
2023/01/19 03:10:47;;;;;;;19.27;16.27;;;-1.70;1.00;;;;;;6282149;28;20236;-57
2023/01/19 03:13:54;;;;;;;23.73;17.63;;;-1.40;1.00;;;;;;6283413;28;20237;-56
2023/01/19 03:17:02;;;;;;;27.57;17.83;;;-1.80;1.00;;;;;;6282913;28;20415;-56
2023/01/19 03:20:07;;;;;;;25.67;17.60;;;-1.60;1.00;;;;;;6264532;28;20234;-56
2023/01/19 03:23:13;;;;;;;23.17;16.80;;;-1.60;1.00;;;;;;6258847;28;20234;-57
2023/01/19 03:26:21;;;;;;;28.33;18.07;;;-1.70;1.00;;;;;;6258655;28;20301;-57
2023/01/19 03:29:28;;;;;;;20.30;16.77;;;-1.90;1.00;;;;;;6255883;28;20238;-57
2023/01/19 03:32:35;;;;;;;24.63;17.73;;;-1.70;1.00;;;;;;6268382;28;20736;-56
2023/01/19 03:35:43;;;;;;;28.27;17.90;;;-2.00;1.00;;;;;;6280769;28;20229;-56
2023/01/19 03:38:49;;;;;;;20.63;17.10;;;-1.90;1.00;;;;;;6282918;28;20265;-56
2023/01/19 03:41:58;;;;;;;28.33;18.93;;;-2.00;1.00;;;;;;6283635;28;20834;-57
2023/01/19 03:45:01;;;;;;;23.17;19.00;;;-1.90;1.00;;;;;;6260194;28;20273;-55
2023/01/19 03:48:06;;;;;;;27.80;18.17;;;-2.10;1.00;;;;;;6258659;28;20261;-56
2023/01/19 03:51:10;;;;;;;25.93;18.00;;;-1.80;1.00;;;;;;6257779;28;20233;-55
2023/01/19 03:54:14;;;;;;;30.67;19.33;;;-1.90;1.00;;;;;;6258507;28;20694;-55
2023/01/19 03:57:18;;;;;;;22.10;18.50;;;-2.30;1.00;;;;;;6258027;28;20316;-56
2023/01/19 04:00:21;;;;;;;30.43;20.13;;;-2.00;1.00;;;;;;6258272;28;20246;-56
2023/01/19 04:03:24;;;;;;;24.83;17.87;;;-2.20;1.00;;;;;;6274416;28;20229;-56
2023/01/19 04:06:27;;;;;;;26.50;18.70;;;-2.20;1.00;;;;;;6281769;28;20710;-55
2023/01/19 04:09:30;;;;;;;27.90;19.43;;;-2.10;1.00;;;;;;6278261;28;20237;-57
2023/01/19 04:12:35;;;;;;;23.17;18.00;;;-2.30;1.00;;;;;;6280769;28;20264;-56
2023/01/19 04:15:38;;;;;;;22.57;18.07;;;-2.10;1.00;;;;;;6263275;28;20634;-56
2023/01/19 04:18:42;;;;;;;21.43;18.40;;;-2.00;1.00;;;;;;6262891;28;20249;-55
2023/01/19 04:21:45;;;;;;;24.17;19.23;;;-2.10;1.00;;;;;;6273356;28;20610;-56
2023/01/19 04:24:48;;;;;;;27.10;19.17;;;-2.00;1.00;;;;;;6262871;28;20234;-55
2023/01/19 04:27:54;;;;;;;25.03;18.23;;;-2.10;1.00;;;;;;6277564;28;20244;-56
2023/01/19 04:30:57;;;;;;;21.70;17.80;;;-2.10;1.00;;;;;;6287414;28;20741;-55
2023/01/19 04:34:00;;;;;;;22.77;18.23;;;-2.10;1.00;;;;;;6274201;28;20394;-57
2023/01/19 04:37:03;;;;;;;22.80;17.70;;;-2.10;1.00;;;;;;6285589;28;20237;-55
2023/01/19 04:40:08;;;;;;;23.43;17.10;;;-2.30;1.00;;;;;;6287374;28;20255;-56
2023/01/19 04:43:13;;;;;;;23.20;17.07;;;-2.00;1.00;;;;;;6292168;28;20615;-56
2023/01/19 04:46:16;;;;;;;22.30;17.00;;;-2.10;1.00;;;;;;6292886;28;20787;-56
2023/01/19 04:49:19;;;;;;;24.87;18.53;;;-2.00;1.00;;;;;;6282877;28;20244;-56
2023/01/19 04:52:22;;;;;;;22.77;18.07;;;-1.90;1.00;;;;;;6298547;28;20380;-56
2023/01/19 04:55:25;;;;;;;25.30;17.80;;;-2.10;1.00;;;;;;6283604;28;20237;-57
2023/01/19 04:58:30;;;;;;;26.23;18.77;;;-1.90;1.00;;;;;;6287471;28;20234;-54
2023/01/19 05:01:33;;;;;;;21.20;17.37;;;-2.10;1.00;;;;;;6286603;28;20718;-56
2023/01/19 05:04:36;;;;;;;26.60;18.57;;;-1.80;1.00;;;;;;6282912;28;20328;-54
2023/01/19 05:07:39;;;;;;;21.20;16.40;;;-1.90;1.00;;;;;;6284702;28;20229;-56
2023/01/19 05:10:42;;;;;;;21.13;18.13;;;-2.00;1.00;;;;;;6275618;28;20252;-55
2023/01/19 05:13:47;;;;;;;23.63;17.60;;;-2.00;1.00;;;;;;6278353;28;20277;-56
2023/01/19 05:16:52;;;;;;;22.57;17.87;;;-2.00;1.00;;;;;;6286534;28;20886;-55
2023/01/19 05:19:55;;;;;;;25.43;17.53;;;-1.90;1.00;;;;;;6285898;28;20764;-55
2023/01/19 05:22:58;;;;;;;22.90;17.00;;;-1.90;1.00;;;;;;6286905;28;20312;-54
2023/01/19 05:26:02;;;;;;;21.13;16.83;;;-1.90;1.00;;;;;;6285746;28;20241;-56
2023/01/19 05:29:08;;;;;;;22.67;16.83;;;-1.80;1.00;;;;;;6291712;28;20237;-55
2023/01/19 05:32:12;;;;;;;23.97;17.40;;;-1.90;1.00;;;;;;6289002;28;20274;-56
2023/01/19 05:35:15;;;;;;;25.53;17.17;;;-2.00;1.00;;;;;;6280218;28;20391;-56
2023/01/19 05:38:26;;;;;;;23.23;17.77;;;-2.00;1.00;;;;;;6284821;28;20747;-55
2023/01/19 05:41:37;;;;;;;23.07;17.10;;;-2.00;1.00;;;;;;6290950;28;20375;-56
2023/01/19 05:44:42;;;;;;;21.23;16.93;;;-2.30;1.00;;;;;;6280937;28;20245;-56
2023/01/19 05:47:45;;;;;;;22.97;17.27;;;-2.10;1.00;;;;;;6281925;28;20642;-56
2023/01/19 05:50:48;;;;;;;21.13;16.87;;;-2.00;1.00;;;;;;6289734;28;20706;-56
2023/01/19 05:53:51;;;;;;;23.43;16.50;;;-2.10;1.00;;;;;;6284988;28;20240;-55
2023/01/19 05:56:54;;;;;;;21.73;17.10;;;-2.40;1.00;;;;;;6281099;28;20248;-54
2023/01/19 05:59:59;;;;;;;26.73;18.13;;;-2.40;1.00;;;;;;6288043;28;20237;-55
2023/01/19 06:03:02;;;;;;;26.13;17.33;;;-2.30;1.00;;;;;;6296436;28;20244;-56
2023/01/19 06:06:06;;;;;;;23.47;17.83;;;-2.30;1.00;;;;;;6275527;28;20238;-55
2023/01/19 06:09:10;;;;;;;20.57;17.23;;;-2.50;1.00;;;;;;6282549;28;20232;-54
2023/01/19 06:12:13;;;;;;;26.07;17.63;;;-2.30;1.00;;;;;;6283668;28;20237;-56
2023/01/19 06:15:18;;;;;;;20.40;16.83;;;-2.30;1.00;;;;;;6284095;28;20237;-56
2023/01/19 06:18:21;;;;;;;20.67;17.00;;;-2.40;1.00;;;;;;6283294;28;20302;-57
2023/01/19 06:21:24;;;;;;;24.20;17.33;;;-2.30;1.00;;;;;;6286256;28;20252;-55
2023/01/19 06:24:28;;;;;;;20.97;16.00;;;-2.20;1.00;;;;;;6287941;28;20243;-56
2023/01/19 06:27:31;;;;;;;25.17;18.00;;;-2.50;1.00;;;;;;6281447;28;20710;-55
2023/01/19 06:30:35;;;;;;;22.33;17.77;;;-2.50;1.00;;;;;;6284950;28;20244;-55
2023/01/19 06:33:38;;;;;;;21.03;16.83;;;-2.40;1.00;;;;;;6286499;28;20226;-55
2023/01/19 06:36:41;;;;;;;23.77;17.80;;;-2.40;1.00;;;;;;6278356;28;20473;-55
2023/01/19 06:39:44;;;;;;;22.60;17.50;;;-2.30;1.00;;;;;;6282463;28;20237;-56
2023/01/19 06:42:49;;;;;;;20.77;17.07;;;-2.30;1.00;;;;;;6282920;28;20241;-55
2023/01/19 06:45:53;;;;;;;21.63;17.80;;;-2.30;1.00;;;;;;6284097;28;20234;-56
2023/01/19 06:48:56;;;;;;;22.93;16.90;;;-2.50;1.00;;;;;;6295619;28;20232;-55
2023/01/19 06:52:00;;;;;;;21.40;17.93;;;-2.40;1.00;;;;;;6290067;28;20391;-59
2023/01/19 06:55:27;;;;;;;22.67;17.27;;;-2.40;1.00;;;;;;6278393;28;20233;-56
2023/01/19 06:58:31;;;;;;;22.30;16.57;;;-2.50;1.00;;;;;;6288461;28;20241;-55
2023/01/19 07:01:35;;;;;;;19.60;17.47;;;-2.40;1.00;;;;;;6284522;28;20510;-55
2023/01/19 07:04:38;;;;;;;23.80;17.47;;;-2.30;1.00;;;;;;6279053;28;20794;-56
2023/01/19 07:07:43;;;;;;;22.87;18.30;;;-2.20;1.00;;;;;;6280762;28;20233;-55
2023/01/19 07:10:46;;;;;;;20.47;16.53;;;-2.20;1.00;;;;;;6283443;28;20256;-55
2023/01/19 07:14:09;;;;;;;25.23;18.17;;;-2.40;1.00;;;;;;6278583;28;20226;-56
2023/01/19 07:17:14;;;;;;;20.80;16.80;;;-2.50;1.00;;;;;;6281241;28;20457;-58
2023/01/19 07:20:18;;;;;;;23.63;17.37;;;-2.40;1.00;;;;;;6282657;28;20237;-55
2023/01/19 07:23:21;;;;;;;22.67;17.17;;;-2.50;1.00;;;;;;6276177;28;20379;-55
2023/01/19 07:26:24;;;;;;;20.60;16.90;;;-2.50;1.00;;;;;;6279923;28;20241;-54
2023/01/19 07:29:27;;;;;;;24.40;17.07;;;-2.40;1.00;;;;;;6283782;28;20232;-58
2023/01/19 07:32:32;;;;;;;19.40;15.70;;;-2.50;1.00;;;;;;6291877;28;20798;-55
2023/01/19 07:35:35;;;;;;;21.43;15.90;;;-2.20;1.00;;;;;;6277593;28;20314;-56
2023/01/19 07:38:38;;;;;;;22.37;16.33;;;-2.30;1.00;;;;;;6283364;28;20725;-57
2023/01/19 07:41:41;;;;;;;24.47;16.80;;;-2.40;1.00;;;;;;6279934;28;20237;-55
2023/01/19 07:44:44;;;;;;;21.70;15.73;;;-2.40;1.00;;;;;;6286251;28;20241;-54
2023/01/19 07:47:49;;;;;;;19.57;16.27;;;-2.30;1.00;;;;;;6291319;28;20822;-56
2023/01/19 07:50:53;;;;;;;23.20;15.77;;;-2.30;1.00;;;;;;6289268;28;20546;-56
2023/01/19 07:53:56;;;;;;;17.43;15.63;;;-2.30;1.00;;;;;;6294963;28;20250;-56
2023/01/19 07:56:59;;;;;;;18.40;15.00;;;-2.30;1.00;;;;;;6297027;28;20362;-57
2023/01/19 08:00:03;;;;;;;19.30;15.30;;;-2.40;1.00;;;;;;6288731;28;20581;-56
2023/01/19 08:03:09;;;;;;;21.97;15.47;;;-2.30;1.00;;;;;;6299321;28;20244;-56
2023/01/19 08:06:20;;;;;;;21.47;15.37;;;-2.10;1.00;;;;;;6283834;28;20232;-56
2023/01/19 08:09:23;;;;;;;18.50;15.23;;;-2.30;1.00;;;;;;6290457;28;20272;-56
2023/01/19 08:12:26;;;;;;;22.17;15.43;;;-2.00;1.00;;;;;;6289997;28;20379;-55
2023/01/19 08:15:29;;;;;;;23.80;16.47;;;-2.00;1.00;;;;;;6287262;28;20770;-56
2023/01/19 08:18:35;;;;;;;18.83;15.93;;;-2.10;1.00;;;;;;6288890;28;20328;-54
2023/01/19 08:21:38;;;;;;;21.07;16.93;;;-2.10;1.00;;;;;;6282104;28;20233;-55
2023/01/19 08:24:41;;;;;;;24.07;18.33;;;-2.00;1.00;;;;;;6289398;28;20566;-55
2023/01/19 08:27:44;;;;;;;22.30;17.40;;;-1.90;1.00;;;;;;6298464;27;20620;-56
2023/01/19 08:30:52;;;;;;;18.13;16.10;;;-1.90;1.00;;;;;;6288975;28;20244;-56
2023/01/19 08:33:57;;;;;;;21.63;15.63;;;-1.80;1.00;;;;;;6295045;28;20237;-56
2023/01/19 08:37:00;;;;;;;20.27;15.73;;;-1.80;1.00;;;;;;6295616;27;20229;-55
2023/01/19 08:40:04;;;;;;;19.60;14.57;;;-1.80;1.00;;;;;;6294694;28;20237;-57
2023/01/19 08:43:10;;;;;;;15.30;13.70;;;-1.70;1.00;;;;;;6294788;28;20606;-55
2023/01/19 08:46:16;;;;;;;18.90;14.93;;;-1.50;1.00;;;;;;6288799;28;20233;-56
2023/01/19 08:49:21;;;;;;;17.77;13.63;;;-1.70;1.00;;;;;;6286789;28;20241;-55
2023/01/19 08:52:25;;;;;;;17.17;13.40;;;-1.30;1.00;;;;;;6290483;28;20233;-56
2023/01/19 08:55:29;;;;;;;15.63;12.07;;;-1.10;1.00;;;;;;6296965;28;20239;-56
2023/01/19 08:58:32;;;;;;;17.33;13.30;;;-1.00;1.00;;;;;;6278085;28;20616;-56
2023/01/19 09:01:36;;;;;;;13.70;12.30;;;-1.10;1.00;;;;;;6291461;28;20229;-55
2023/01/19 09:04:41;;;;;;;19.60;13.40;;;-1.00;1.00;;;;;;6286181;28;20500;-55
2023/01/19 09:07:45;;;;;;;18.83;13.87;;;-1.00;1.00;;;;;;6283059;28;20245;-55
2023/01/19 09:10:50;;;;;;;14.57;11.17;;;-0.80;1.00;;;;;;6284744;28;20272;-56
2023/01/19 09:13:53;;;;;;;15.03;12.40;;;-0.80;1.00;;;;;;6290682;28;20237;-55
2023/01/19 09:16:56;;;;;;;13.47;12.27;;;-1.00;1.00;;;;;;6293233;28;20236;-54
2023/01/19 09:20:00;;;;;;;14.10;12.37;;;-0.90;1.00;;;;;;6285137;28;20255;-56
2023/01/19 09:23:03;;;;;;;15.70;11.80;;;-0.60;1.00;;;;;;6286037;28;20233;-56
2023/01/19 09:26:07;;;;;;;13.97;11.63;;;-0.30;1.00;;;;;;6289008;28;20608;-56
2023/01/19 09:29:10;;;;;;;13.40;12.00;;;-0.60;1.00;;;;;;6291510;28;20324;-56
2023/01/19 09:32:13;;;;;;;20.87;14.43;;;-0.60;1.00;;;;;;6288898;28;20225;-57
2023/01/19 09:35:17;;;;;;;12.57;11.27;;;-0.10;1.00;;;;;;6282876;28;20470;-56
2023/01/19 09:38:21;;;;;;;12.83;11.60;;;0.20;1.00;;;;;;6289828;28;20706;-56
2023/01/19 09:41:25;;;;;;;12.90;11.60;;;0.50;1.00;;;;;;6291945;28;20307;-56
2023/01/19 09:44:32;;;;;;;11.73;10.57;;;0.70;1.00;;;;;;6289244;28;20599;-56
2023/01/19 09:47:36;;;;;;;12.07;10.93;;;0.60;1.00;;;;;;6292026;28;20225;-56
2023/01/19 09:50:45;;;;;;;12.97;11.60;;;0.60;1.00;;;;;;6290850;28;20228;-56
2023/01/19 09:54:05;;;;;;;12.53;11.27;;;0.60;1.00;;;;;;6286932;28;20253;-56
2023/01/19 09:57:11;;;;;;;12.53;11.33;;;0.80;1.00;;;;;;6276846;28;20238;-56
2023/01/19 10:00:16;;;;;;;12.30;11.07;;;0.70;1.00;;;;;;6278385;28;20241;-55
2023/01/19 10:03:19;;;;;;;13.30;11.37;;;0.80;1.00;;;;;;6286887;28;20471;-56
2023/01/19 10:06:24;;;;;;;12.23;11.03;;;0.70;1.00;;;;;;6272159;28;20602;-56
2023/01/19 10:09:34;;;;;;;12.60;11.37;;;1.10;1.00;;;;;;6274206;28;20600;-55
2023/01/19 10:12:44;;;;;;;11.70;10.53;;;0.70;1.00;;;;;;6285964;28;20317;-55
2023/01/19 10:15:58;;;;;;;14.67;10.80;;;0.80;1.00;;;;;;6287512;28;20268;-56
2023/01/19 10:19:17;;;;;;;12.13;11.03;;;1.00;1.00;;;;;;6278685;28;20248;-56
2023/01/19 10:22:23;;;;;;;12.80;11.50;;;1.10;1.00;;;;;;6283650;28;20221;-55
2023/01/19 10:25:27;;;;;;;13.27;11.57;;;1.20;1.00;;;;;;6283061;28;20239;-57
2023/01/19 10:28:30;;;;;;;11.60;10.53;;;1.00;1.00;;;;;;6281017;28;20233;-56
2023/01/19 10:31:37;;;;;;;12.57;11.30;;;1.40;1.00;;;;;;6284307;28;20236;-58
2023/01/19 10:34:41;;;;;;;11.57;10.63;;;1.30;1.00;;;;;;6285649;28;20229;-57
2023/01/19 10:37:45;;;;;;;12.73;11.60;;;1.50;1.00;;;;;;6291420;28;20736;-56
2023/01/19 10:40:55;;;;;;;13.47;10.53;;;1.40;1.00;;;;;;6282102;28;20237;-59
2023/01/19 10:44:03;;;;;;;12.37;11.13;;;1.40;1.00;;;;;;6287989;28;20268;-57
2023/01/19 10:47:12;;;;;;;12.17;11.00;;;1.60;1.00;;;;;;6278989;28;20232;-56
2023/01/19 10:50:27;;;;;;;11.37;10.47;;;1.60;1.00;;;;;;6285466;28;20256;-56
2023/01/19 10:53:32;;;;;;;12.10;10.90;;;1.50;1.00;;;;;;6287425;28;20324;-56
2023/01/19 10:56:37;;;;;;;12.13;10.83;;;1.50;1.00;;;;;;6285547;28;20244;-56
2023/01/19 10:59:49;;;;;;;11.47;10.30;;;1.60;1.00;;;;;;6284409;28;20336;-56
2023/01/19 11:02:52;;;;;;;11.93;10.83;;;1.70;1.00;;;;;;6291168;28;20241;-57
2023/01/19 11:06:20;;;;;;;11.27;10.30;;;1.90;1.00;;;;;;6282847;28;20312;-56
2023/01/19 11:09:24;;;;;;;12.40;10.87;;;2.10;1.00;;;;;;6282564;28;20240;-56
2023/01/19 11:12:27;;;;;;;12.57;11.37;;;2.00;1.00;;;;;;6285898;28;20233;-56
2023/01/19 11:15:33;;;;;;;13.10;11.80;;;2.10;1.00;;;;;;6283645;28;20229;-61
2023/01/19 11:18:39;;;;;;;13.43;12.07;;;2.10;1.00;;;;;;6292428;28;20468;-56
2023/01/19 11:21:42;;;;;;;11.57;10.47;;;2.20;1.00;;;;;;6280733;28;20268;-57
2023/01/19 11:24:46;;;;;;;12.00;10.73;;;2.20;1.00;;;;;;6281413;28;20241;-57
2023/01/19 11:27:51;;;;;;;13.00;10.87;;;2.40;1.00;;;;;;6288814;28;20306;-58
2023/01/19 11:30:56;;;;;;;11.00;9.97;;;2.30;1.00;;;;;;6283364;28;20629;-57
2023/01/19 11:34:01;;;;;;;12.00;10.80;;;2.30;1.00;;;;;;6284782;28;20518;-56
2023/01/19 11:37:06;;;;;;;12.03;10.97;;;2.30;1.00;;;;;;6285254;28;20248;-55
2023/01/19 11:40:11;;;;;;;13.13;11.80;;;2.30;1.00;;;;;;6278731;28;20245;-58
2023/01/19 11:43:16;;;;;;;12.03;11.00;;;2.30;1.00;;;;;;6288145;28;20306;-56
2023/01/19 11:46:20;;;;;;;12.93;11.37;;;2.40;1.00;;;;;;6287585;28;20241;-57
2023/01/19 11:49:31;;;;;;;13.07;11.97;;;2.50;1.00;;;;;;6281722;28;20236;-56
2023/01/19 11:52:40;;;;;;;12.20;11.00;;;2.40;1.00;;;;;;6282030;28;20686;-56
2023/01/19 11:55:50;;;;;;;12.60;11.50;;;2.50;1.00;;;;;;6276183;28;20234;-57
2023/01/19 11:58:53;;;;;;;12.27;10.97;;;2.50;1.00;;;;;;6285194;28;20662;-56
2023/01/19 12:01:59;;;;;;;12.63;11.10;;;2.50;1.00;;;;;;6270980;28;20749;-57
2023/01/19 12:05:11;;;;;;;14.70;11.70;;;2.80;1.00;;;;;;6268292;28;20238;-56
2023/01/19 12:08:20;;;;;;;11.50;10.50;;;2.50;1.00;;;;;;6275179;28;20237;-57
2023/01/19 12:11:30;;;;;;;12.27;11.27;;;2.70;1.00;;;;;;6285718;28;20567;-55
2023/01/19 12:14:41;;;;;;;13.17;11.90;;;3.10;1.00;;;;;;6276488;28;20229;-57
2023/01/19 12:17:48;;;;;;;14.17;11.50;;;2.80;1.00;;;;;;6280945;28;20637;-56
2023/01/19 12:20:53;;;;;;;14.00;12.10;;;2.70;1.00;;;;;;6283095;28;20240;-56
2023/01/19 12:24:07;;;;;;;16.67;12.50;;;3.10;1.00;;;;;;6281029;28;20237;-57
2023/01/19 12:27:18;;;;;;;13.87;12.03;;;2.90;1.00;;;;;;6274611;28;20245;-56
2023/01/19 12:30:23;;;;;;;12.93;11.67;;;2.90;1.00;;;;;;6281929;28;20244;-56
2023/01/19 12:33:36;;;;;;;14.33;12.93;;;3.10;1.00;;;;;;6282756;28;20260;-56
2023/01/19 12:36:39;;;;;;;12.80;11.57;;;2.90;1.00;;;;;;6285962;28;20840;-56
2023/01/19 12:39:48;;;;;;;15.50;12.47;;;2.90;1.00;;;;;;6281547;28;20256;-56
2023/01/19 12:42:58;;;;;;;15.27;13.20;;;3.00;1.00;;;;;;6287090;28;20515;-57
2023/01/19 12:46:02;;;;;;;16.50;13.27;;;2.90;1.00;;;;;;6281493;28;20244;-57
2023/01/19 12:49:09;;;;;;;14.43;12.93;;;2.90;1.00;;;;;;6291296;28;20241;-56
2023/01/19 12:52:32;;;;;;;14.57;13.07;;;3.00;1.00;;;;;;6289685;28;20601;-56
2023/01/19 12:55:37;;;;;;;12.80;11.70;;;3.20;1.00;;;;;;6290734;28;20367;-56
2023/01/19 12:58:49;;;;;;;15.70;12.30;;;3.10;1.00;;;;;;6292613;28;20675;-55
2023/01/19 13:02:29;;;;;;;13.40;12.00;;;3.30;1.00;;;;;;6283794;28;20631;-56
2023/01/19 13:05:59;;;;;;;13.80;12.60;;;3.00;1.00;;;;;;6279367;28;20673;-56
2023/01/19 13:09:02;;;;;;;12.53;11.27;;;3.00;1.00;;;;;;6285394;28;20237;-56
2023/01/19 13:12:20;;;;;;;13.47;12.03;;;3.00;1.00;;;;;;6291342;28;20614;-55
2023/01/19 13:15:33;;;;;;;13.53;12.13;;;3.00;1.00;;;;;;6283788;28;20233;-55
2023/01/19 13:18:42;;;;;;;16.50;13.10;;;3.20;1.00;;;;;;6285526;28;20343;-55
2023/01/19 13:21:47;;;;;;;17.07;13.67;;;3.10;1.00;;;;;;6289335;28;20685;-55
2023/01/19 13:25:07;;;;;;;14.87;13.23;;;3.10;1.00;;;;;;6283097;28;20247;-56
2023/01/19 13:28:13;;;;;;;14.40;13.00;;;3.00;1.00;;;;;;6291035;28;20571;-56
2023/01/19 13:31:19;;;;;;;15.57;12.33;;;3.10;1.00;;;;;;6291307;28;20237;-55
2023/01/19 13:34:25;;;;;;;13.63;12.17;;;3.10;1.00;;;;;;6288944;28;20380;-58
2023/01/19 13:37:35;;;;;;;13.53;12.23;;;3.00;1.00;;;;;;6287666;28;20234;-56
2023/01/19 13:40:38;;;;;;;14.47;13.17;;;3.00;1.00;;;;;;6285729;28;20244;-55
2023/01/19 13:43:42;;;;;;;14.73;13.20;;;3.20;1.00;;;;;;6285879;27;20858;-56
2023/01/19 13:46:47;;;;;;;14.13;12.73;;;2.90;1.00;;;;;;6287305;28;20241;-56
2023/01/19 13:49:55;;;;;;;15.17;13.33;;;3.00;1.00;;;;;;6288131;28;20631;-55
2023/01/19 13:52:59;;;;;;;18.50;15.03;;;2.90;1.00;;;;;;6283458;28;20379;-55
2023/01/19 13:56:20;;;;;;;16.57;14.03;;;2.70;1.00;;;;;;6288072;28;20243;-54
2023/01/19 13:59:23;;;;;;;16.10;14.40;;;2.90;1.00;;;;;;6279851;28;20228;-54
2023/01/19 14:02:28;;;;;;;16.40;14.50;;;2.40;1.00;;;;;;6282540;28;20229;-55
2023/01/19 14:05:33;;;;;;;14.87;13.37;;;2.50;1.00;;;;;;6284149;28;20237;-56
2023/01/19 14:08:36;;;;;;;15.63;13.67;;;2.60;1.00;;;;;;6285225;28;20375;-58
2023/01/19 14:11:39;;;;;;;19.43;14.90;;;2.40;1.00;;;;;;6283939;28;20233;-57
2023/01/19 14:14:43;;;;;;;15.97;14.00;;;2.40;1.00;;;;;;6286571;28;20225;-56
2023/01/19 14:18:08;;;;;;;15.80;14.00;;;2.30;1.00;;;;;;6279093;28;20236;-56
2023/01/19 14:21:13;;;;;;;15.17;13.67;;;2.10;1.00;;;;;;6280580;28;20229;-55
2023/01/19 14:24:18;;;;;;;17.87;14.17;;;2.10;1.00;;;;;;6291297;28;20637;-55
2023/01/19 14:27:23;;;;;;;15.80;14.10;;;2.10;1.00;;;;;;6283502;28;20754;-55
2023/01/19 14:30:27;;;;;;;19.23;15.03;;;2.20;1.00;;;;;;6283540;28;20234;-57
2023/01/19 14:33:36;;;;;;;15.53;14.03;;;1.90;1.00;;;;;;6283689;28;20379;-55
2023/01/19 14:36:40;;;;;;;15.67;14.07;;;1.80;1.00;;;;;;6280006;28;20494;-56
2023/01/19 14:39:48;;;;;;;18.10;15.23;;;1.80;1.00;;;;;;6279867;28;20733;-58
2023/01/19 14:42:54;;;;;;;16.60;14.90;;;1.80;1.00;;;;;;6283914;28;20468;-55
2023/01/19 14:45:57;;;;;;;18.23;14.93;;;1.90;1.00;;;;;;6281746;28;20238;-56
2023/01/19 14:49:04;;;;;;;18.03;16.20;;;1.50;1.00;;;;;;6281673;28;20229;-56
2023/01/19 14:52:16;;;;;;;18.00;15.00;;;1.60;1.00;;;;;;6283319;28;20233;-55
2023/01/19 14:55:23;;;;;;;16.67;14.93;;;1.70;1.00;;;;;;6281912;28;20260;-57
2023/01/19 14:58:29;;;;;;;17.53;15.50;;;1.70;1.00;;;;;;6281751;28;20448;-55
2023/01/19 15:01:33;;;;;;;18.93;15.90;;;1.70;1.00;;;;;;6284445;28;20271;-55
2023/01/19 15:04:37;;;;;;;18.23;15.43;;;1.60;1.00;;;;;;6282172;28;20256;-55
2023/01/19 15:07:43;;;;;;;19.80;16.07;;;1.30;1.00;;;;;;6282077;28;20256;-55
2023/01/19 15:10:46;;;;;;;19.23;15.90;;;1.40;1.00;;;;;;6282730;28;20362;-55
2023/01/19 15:13:50;;;;;;;18.40;16.50;;;1.60;1.00;;;;;;6282220;28;20245;-55
2023/01/19 15:16:54;;;;;;;21.07;16.80;;;1.40;1.00;;;;;;6283137;28;20399;-56
2023/01/19 15:19:58;;;;;;;18.10;15.53;;;1.30;1.00;;;;;;6281939;28;20369;-55
2023/01/19 15:23:01;;;;;;;20.10;16.20;;;1.10;1.00;;;;;;6282013;28;20237;-55
2023/01/19 15:26:05;;;;;;;19.30;16.33;;;1.30;1.00;;;;;;6286882;28;20237;-55
2023/01/19 15:29:17;;;;;;;17.37;15.60;;;1.00;1.00;;;;;;6280801;28;20752;-56
2023/01/19 15:32:20;;;;;;;20.13;16.10;;;1.30;1.00;;;;;;6285623;28;20236;-56
2023/01/19 15:35:25;;;;;;;20.47;16.27;;;1.20;1.00;;;;;;6276133;28;20256;-55
2023/01/19 15:38:29;;;;;;;18.53;15.53;;;1.10;1.00;;;;;;6279015;28;20229;-55
2023/01/19 15:41:32;;;;;;;18.27;15.47;;;1.40;1.00;;;;;;6282479;28;20619;-56
2023/01/19 15:44:35;;;;;;;20.30;16.97;;;1.30;1.00;;;;;;6282572;28;20720;-56
2023/01/19 15:47:38;;;;;;;20.07;16.00;;;1.20;1.00;;;;;;6275025;28;20241;-56
2023/01/19 15:50:44;;;;;;;19.40;16.33;;;1.30;1.00;;;;;;6280745;28;20294;-56
2023/01/19 15:53:47;;;;;;;21.40;16.87;;;1.30;1.00;;;;;;6281916;28;20329;-55
2023/01/19 15:56:51;;;;;;;22.20;17.00;;;1.20;1.00;;;;;;6281574;28;20233;-55
2023/01/19 15:59:54;;;;;;;18.20;16.40;;;1.20;1.00;;;;;;6280679;28;20245;-56
2023/01/19 16:02:58;;;;;;;24.07;16.87;;;1.30;1.00;;;;;;6285364;28;20240;-55
2023/01/19 16:06:02;;;;;;;18.33;15.67;;;1.20;1.00;;;;;;6282403;28;20233;-55
2023/01/19 16:09:06;;;;;;;19.17;15.80;;;1.10;1.00;;;;;;6285615;28;20241;-56